Time;durP1;ratioP1;P1;durP2;ratioP2;P2;SDS_P1;SDS_P2;PMS_P1;PMS_P2;Temp;Humidity;BMP_temperature;BMP_pressure;BME280_temperature;BME280_humidity;BME280_pressure;Samples;Min_cycle;Max_cycle;Signal;HPM_P1;HPM_P2
2022/10/12 00:00:17;;;;;;;16.42;12.35;;;;;;;;;;1673440;85;21018;-74
2022/10/12 00:02:43;;;;;;;23.85;13.95;;;;;;;;;;1671532;84;21034;-74
2022/10/12 00:05:11;;;;;;;17.17;13.88;;;;;;;;;;1669958;85;21047;-74
2022/10/12 00:07:37;;;;;;;16.77;13.62;;;;;;;;;;1669205;85;20960;-74
2022/10/12 00:10:04;;;;;;;30.30;13.45;;;;;;;;;;1669560;85;21065;-73
2022/10/12 00:12:30;;;;;;;17.62;13.88;;;;;;;;;;1669435;85;20937;-73
2022/10/12 00:14:56;;;;;;;25.32;14.80;;;;;;;;;;1669644;85;20912;-75
2022/10/12 00:17:22;;;;;;;18.77;14.10;;;;;;;;;;1667800;85;21012;-74
2022/10/12 00:19:49;;;;;;;25.20;14.65;;;;;;;;;;1671526;85;20904;-74
2022/10/12 00:22:15;;;;;;;21.55;15.25;;;;;;;;;;1669976;85;21638;-74
2022/10/12 00:24:42;;;;;;;21.35;14.45;;;;;;;;;;1669447;85;20877;-74
2022/10/12 00:30:39;;;;;;;21.27;14.28;;;;;;;;;;1666770;85;20924;-74
2022/10/12 00:33:05;;;;;;;24.02;14.13;;;;;;;;;;1660324;86;20957;-74
2022/10/12 00:35:32;;;;;;;23.27;14.53;;;;;;;;;;1663136;85;20999;-73
2022/10/12 00:37:58;;;;;;;27.82;14.53;;;;;;;;;;1661732;86;20972;-73
2022/10/12 00:40:24;;;;;;;24.82;14.63;;;;;;;;;;1659764;86;20933;-73
2022/10/12 00:42:50;;;;;;;21.25;14.63;;;;;;;;;;1663401;85;20901;-73
2022/10/12 00:48:42;;;;;;;27.00;15.03;;;;;;;;;;1669570;85;20908;-73
2022/10/12 00:51:08;;;;;;;34.65;15.40;;;;;;;;;;1667523;85;20909;-73
2022/10/12 00:53:36;;;;;;;22.52;14.20;;;;;;;;;;1658257;86;20862;-73
2022/10/12 00:56:03;;;;;;;21.82;14.45;;;;;;;;;;1661110;85;20939;-72
2022/10/12 01:01:55;;;;;;;21.37;15.03;;;;;;;;;;1666825;85;21433;-73
2022/10/12 01:04:21;;;;;;;17.98;14.65;;;;;;;;;;1667687;85;20870;-73
2022/10/12 01:06:47;;;;;;;19.90;14.45;;;;;;;;;;1639441;87;21422;-73
2022/10/12 01:09:15;;;;;;;18.30;14.53;;;;;;;;;;1662576;84;21460;-73
2022/10/12 01:11:42;;;;;;;22.73;14.60;;;;;;;;;;1663291;85;21046;-73
2022/10/12 01:14:08;;;;;;;21.55;14.65;;;;;;;;;;1636064;86;21087;-73
2022/10/12 01:16:36;;;;;;;20.00;13.62;;;;;;;;;;1630343;87;21040;-73
2022/10/12 01:19:21;;;;;;;22.20;15.20;;;;;;;;;;1665852;85;20903;-74
2022/10/12 01:21:52;;;;;;;27.52;15.85;;;;;;;;;;1670964;85;21499;-74
2022/10/12 01:24:37;;;;;;;20.85;13.95;;;;;;;;;;1668727;85;20959;-73
2022/10/12 01:27:21;;;;;;;25.90;15.68;;;;;;;;;;1665118;85;21534;-73
2022/10/12 01:30:06;;;;;;;21.37;14.23;;;;;;;;;;1668522;85;21463;-74
2022/10/12 01:32:51;;;;;;;25.15;15.93;;;;;;;;;;1667023;85;20838;-74
2022/10/12 01:35:22;;;;;;;19.73;15.38;;;;;;;;;;1669554;85;20938;-74
2022/10/12 01:37:55;;;;;;;25.50;15.30;;;;;;;;;;1665924;85;20846;-74
2022/10/12 01:40:39;;;;;;;20.48;14.00;;;;;;;;;;1669655;85;21546;-74
2022/10/12 01:43:05;;;;;;;20.77;14.70;;;;;;;;;;1667431;85;20962;-74
2022/10/12 01:45:31;;;;;;;28.25;15.48;;;;;;;;;;1641155;85;21037;-74
2022/10/12 01:47:57;;;;;;;25.97;15.85;;;;;;;;;;1641485;85;20952;-73
2022/10/12 01:50:27;;;;;;;28.77;15.13;;;;;;;;;;1637697;86;20964;-72
2022/10/12 01:52:56;;;;;;;22.17;16.55;;;;;;;;;;1607066;87;21041;-73
2022/10/12 01:55:23;;;;;;;24.47;16.70;;;;;;;;;;1638147;87;20940;-73
2022/10/12 01:57:53;;;;;;;22.70;16.75;;;;;;;;;;1660342;84;20930;-73
2022/10/12 02:00:19;;;;;;;23.70;15.93;;;;;;;;;;1671822;84;20952;-73
2022/10/12 02:02:49;;;;;;;23.18;17.50;;;;;;;;;;1642090;87;20914;-73
2022/10/12 02:05:20;;;;;;;23.10;16.32;;;;;;;;;;1614588;87;21099;-73
2022/10/12 02:11:15;;;;;;;22.70;15.70;;;;;;;;;;1639848;86;20991;-73
2022/10/12 02:20:27;;;;;;;27.50;16.40;;;;;;;;;;1642763;84;21826;-73
2022/10/12 02:26:19;;;;;;;26.42;15.40;;;;;;;;;;1639113;85;20989;-73
2022/10/12 02:32:12;;;;;;;25.85;16.95;;;;;;;;;;1640388;84;20893;-73
2022/10/12 02:38:13;;;;;;;25.90;15.78;;;;;;;;;;1640344;85;20967;-73
2022/10/12 02:40:42;;;;;;;20.85;15.88;;;;;;;;;;1643756;85;21013;-73
2022/10/12 02:46:34;;;;;;;27.05;17.77;;;;;;;;;;1667477;84;20948;-74
2022/10/12 02:49:01;;;;;;;23.83;17.27;;;;;;;;;;1668982;85;21089;-74
2022/10/12 02:51:28;;;;;;;30.45;17.55;;;;;;;;;;1673785;85;20947;-74
2022/10/12 02:53:54;;;;;;;24.40;17.45;;;;;;;;;;1671936;85;20912;-74
2022/10/12 02:56:20;;;;;;;27.77;18.00;;;;;;;;;;1669965;85;20917;-74
2022/10/12 02:58:46;;;;;;;24.30;18.20;;;;;;;;;;1658123;85;21493;-74
2022/10/12 03:01:12;;;;;;;26.37;17.45;;;;;;;;;;1667829;85;21574;-75
2022/10/12 03:03:39;;;;;;;26.52;18.98;;;;;;;;;;1667635;85;20954;-74
2022/10/12 03:06:06;;;;;;;28.47;18.52;;;;;;;;;;1670450;85;20882;-74
2022/10/12 03:08:32;;;;;;;25.70;19.02;;;;;;;;;;1676352;85;21351;-73
2022/10/12 03:11:02;;;;;;;35.68;20.68;;;;;;;;;;1664137;85;21139;-73
2022/10/12 03:13:29;;;;;;;28.38;18.57;;;;;;;;;;1665394;85;20998;-73
2022/10/12 03:16:06;;;;;;;28.90;18.77;;;;;;;;;;1672168;85;20962;-72
2022/10/12 03:18:34;;;;;;;34.23;19.98;;;;;;;;;;1668037;85;20882;-73
2022/10/12 03:21:02;;;;;;;31.70;18.92;;;;;;;;;;1668362;84;20875;-73
2022/10/12 03:23:28;;;;;;;30.55;19.87;;;;;;;;;;1667992;85;20937;-73
2022/10/12 03:25:54;;;;;;;27.48;18.85;;;;;;;;;;1669699;85;20996;-73
2022/10/12 03:28:20;;;;;;;27.58;18.75;;;;;;;;;;1672149;85;20958;-73
2022/10/12 03:30:46;;;;;;;26.65;19.05;;;;;;;;;;1672550;85;21525;-72
2022/10/12 03:33:13;;;;;;;28.35;20.55;;;;;;;;;;1666783;85;21008;-73
2022/10/12 03:35:39;;;;;;;34.50;19.67;;;;;;;;;;1669457;85;20893;-72
2022/10/12 03:38:05;;;;;;;30.72;20.08;;;;;;;;;;1644583;85;21775;-73
2022/10/12 03:40:31;;;;;;;23.87;18.35;;;;;;;;;;1670424;85;20998;-73
2022/10/12 03:42:57;;;;;;;31.42;21.73;;;;;;;;;;1666786;85;21473;-75
2022/10/12 03:45:24;;;;;;;34.10;21.20;;;;;;;;;;1635991;87;20965;-74
2022/10/12 03:47:50;;;;;;;27.55;18.65;;;;;;;;;;1668919;85;20967;-73
2022/10/12 03:50:16;;;;;;;34.30;20.00;;;;;;;;;;1640873;87;21615;-75
2022/10/12 03:52:43;;;;;;;25.23;17.85;;;;;;;;;;1670501;85;20877;-73
2022/10/12 03:55:10;;;;;;;23.90;17.50;;;;;;;;;;1668073;85;20897;-72
2022/10/12 03:57:37;;;;;;;28.80;20.90;;;;;;;;;;1667234;85;21031;-73
2022/10/12 04:00:03;;;;;;;28.55;19.92;;;;;;;;;;1672020;85;20861;-73
2022/10/12 04:02:32;;;;;;;28.80;21.35;;;;;;;;;;1668983;85;21032;-73
2022/10/12 04:04:58;;;;;;;33.90;18.90;;;;;;;;;;1672851;85;20978;-74
2022/10/12 04:07:26;;;;;;;26.30;18.97;;;;;;;;;;1673015;85;20917;-73
2022/10/12 04:09:54;;;;;;;30.73;20.13;;;;;;;;;;1672110;85;20976;-73
2022/10/12 04:12:20;;;;;;;29.00;18.55;;;;;;;;;;1674752;85;20987;-73
2022/10/12 04:14:46;;;;;;;28.95;20.15;;;;;;;;;;1671830;85;20976;-74
2022/10/12 04:17:16;;;;;;;32.48;20.92;;;;;;;;;;1671502;85;20944;-73
2022/10/12 04:19:42;;;;;;;34.85;21.07;;;;;;;;;;1670441;85;21459;-73
2022/10/12 04:22:08;;;;;;;30.48;20.43;;;;;;;;;;1669350;85;20877;-73
2022/10/12 04:24:34;;;;;;;31.10;21.20;;;;;;;;;;1647900;85;20912;-72
2022/10/12 04:27:00;;;;;;;34.35;20.57;;;;;;;;;;1674159;84;20992;-73
2022/10/12 04:29:26;;;;;;;27.82;19.48;;;;;;;;;;1673570;85;21650;-74
2022/10/12 04:31:53;;;;;;;32.25;22.17;;;;;;;;;;1670183;85;20912;-72
2022/10/12 04:34:20;;;;;;;31.30;21.35;;;;;;;;;;1670642;85;20915;-74
2022/10/12 04:36:46;;;;;;;32.38;22.05;;;;;;;;;;1671254;85;21640;-74
2022/10/12 04:39:12;;;;;;;33.20;23.22;;;;;;;;;;1638095;87;21015;-73
2022/10/12 04:41:39;;;;;;;29.48;21.12;;;;;;;;;;1648971;85;20936;-74
2022/10/12 04:44:05;;;;;;;32.17;22.25;;;;;;;;;;1640860;87;21032;-74
2022/10/12 04:46:32;;;;;;;33.42;22.17;;;;;;;;;;1642178;86;20932;-73
2022/10/12 04:48:58;;;;;;;29.52;19.75;;;;;;;;;;1641002;85;20950;-73
2022/10/12 04:51:24;;;;;;;30.90;20.10;;;;;;;;;;1639705;86;20999;-74
2022/10/12 04:53:50;;;;;;;30.32;20.62;;;;;;;;;;1645067;85;21435;-72
2022/10/12 04:56:17;;;;;;;32.88;21.75;;;;;;;;;;1639692;87;20905;-74
2022/10/12 04:58:43;;;;;;;31.00;21.52;;;;;;;;;;1640223;87;20858;-73
2022/10/12 05:01:09;;;;;;;35.35;21.35;;;;;;;;;;1640166;87;21475;-73
2022/10/12 05:07:05;;;;;;;26.02;18.25;;;;;;;;;;1666465;84;20964;-73
2022/10/12 05:09:33;;;;;;;31.30;17.75;;;;;;;;;;1665707;85;20945;-72
2022/10/12 05:12:00;;;;;;;28.10;18.07;;;;;;;;;;1666505;85;21487;-73
2022/10/12 05:14:28;;;;;;;25.43;16.67;;;;;;;;;;1667123;84;20954;-74
2022/10/12 05:16:55;;;;;;;23.65;16.35;;;;;;;;;;1667917;84;21091;-74
2022/10/12 05:19:23;;;;;;;26.45;17.17;;;;;;;;;;1667132;85;20887;-72
2022/10/12 05:21:52;;;;;;;36.57;25.17;;;;;;;;;;1668052;85;20882;-73
2022/10/12 05:24:18;;;;;;;34.20;28.45;;;;;;;;;;1666297;85;21027;-73
2022/10/12 05:26:44;;;;;;;46.37;33.05;;;;;;;;;;1668639;85;20889;-73
2022/10/12 05:29:10;;;;;;;30.15;21.45;;;;;;;;;;1638144;86;21015;-73
2022/10/12 05:31:36;;;;;;;30.32;23.98;;;;;;;;;;1630700;86;20874;-74
2022/10/12 05:34:03;;;;;;;31.60;24.02;;;;;;;;;;1630492;86;21120;-74
2022/10/12 05:36:29;;;;;;;37.90;24.70;;;;;;;;;;1630451;86;21008;-73
2022/10/12 05:38:55;;;;;;;51.63;33.63;;;;;;;;;;1629940;87;20980;-73
2022/10/12 05:41:21;;;;;;;29.52;19.65;;;;;;;;;;1608851;87;22187;-73
2022/10/12 05:43:47;;;;;;;35.10;21.10;;;;;;;;;;1630755;88;20960;-73
2022/10/12 05:46:13;;;;;;;26.65;15.75;;;;;;;;;;1641108;87;20928;-72
2022/10/12 05:48:39;;;;;;;24.30;15.72;;;;;;;;;;1670503;85;20869;-74
2022/10/12 05:51:05;;;;;;;21.93;15.05;;;;;;;;;;1666434;85;20958;-73
2022/10/12 05:53:31;;;;;;;22.27;14.33;;;;;;;;;;1667311;85;20959;-72
2022/10/12 05:55:58;;;;;;;19.32;14.85;;;;;;;;;;1664264;85;20854;-74
2022/10/12 05:58:25;;;;;;;20.57;14.38;;;;;;;;;;1647466;85;20959;-74
2022/10/12 06:00:51;;;;;;;20.92;14.45;;;;;;;;;;1672692;84;20912;-73
